sensor_id;sensor_type;location;lat;lon;timestamp;P1;durP1;ratioP1;P2;durP2;ratioP2
17173;SDS011;8702;48.130;-1.696;2022-12-10T00:02:13;25.45;;;19.60;;
17173;SDS011;8702;48.130;-1.696;2022-12-10T00:04:41;24.65;;;19.23;;
17173;SDS011;8702;48.130;-1.696;2022-12-10T00:07:08;26.08;;;19.95;;
17173;SDS011;8702;48.130;-1.696;2022-12-10T00:09:37;24.55;;;18.77;;
17173;SDS011;8702;48.130;-1.696;2022-12-10T00:12:04;19.27;;;16.63;;
17173;SDS011;8702;48.130;-1.696;2022-12-10T00:14:31;20.80;;;16.35;;
17173;SDS011;8702;48.130;-1.696;2022-12-10T00:16:58;19.95;;;16.48;;
17173;SDS011;8702;48.130;-1.696;2022-12-10T00:19:26;18.13;;;15.98;;
17173;SDS011;8702;48.130;-1.696;2022-12-10T00:21:53;20.50;;;16.02;;
17173;SDS011;8702;48.130;-1.696;2022-12-10T00:24:20;20.20;;;17.02;;
17173;SDS011;8702;48.130;-1.696;2022-12-10T00:26:49;21.77;;;18.77;;
17173;SDS011;8702;48.130;-1.696;2022-12-10T00:29:16;22.60;;;19.05;;
17173;SDS011;8702;48.130;-1.696;2022-12-10T00:31:43;23.05;;;19.48;;
17173;SDS011;8702;48.130;-1.696;2022-12-10T00:34:11;24.65;;;20.40;;
17173;SDS011;8702;48.130;-1.696;2022-12-10T00:36:40;25.67;;;21.08;;
17173;SDS011;8702;48.130;-1.696;2022-12-10T00:39:07;25.25;;;19.48;;
17173;SDS011;8702;48.130;-1.696;2022-12-10T00:41:35;27.55;;;21.42;;
17173;SDS011;8702;48.130;-1.696;2022-12-10T00:44:04;26.00;;;20.67;;
17173;SDS011;8702;48.130;-1.696;2022-12-10T00:46:31;24.00;;;19.67;;
17173;SDS011;8702;48.130;-1.696;2022-12-10T00:48:59;22.67;;;19.73;;
17173;SDS011;8702;48.130;-1.696;2022-12-10T00:51:27;23.60;;;19.13;;
17173;SDS011;8702;48.130;-1.696;2022-12-10T00:53:55;24.58;;;18.50;;
17173;SDS011;8702;48.130;-1.696;2022-12-10T00:56:23;25.60;;;18.97;;
17173;SDS011;8702;48.130;-1.696;2022-12-10T00:58:51;25.95;;;20.17;;
17173;SDS011;8702;48.130;-1.696;2022-12-10T01:01:20;23.55;;;18.55;;
17173;SDS011;8702;48.130;-1.696;2022-12-10T01:03:49;22.30;;;17.77;;
17173;SDS011;8702;48.130;-1.696;2022-12-10T01:06:17;20.38;;;16.63;;
17173;SDS011;8702;48.130;-1.696;2022-12-10T01:08:45;21.38;;;17.15;;
17173;SDS011;8702;48.130;-1.696;2022-12-10T01:11:13;21.95;;;17.10;;
17173;SDS011;8702;48.130;-1.696;2022-12-10T01:13:41;18.40;;;16.05;;
17173;SDS011;8702;48.130;-1.696;2022-12-10T01:16:09;20.38;;;17.25;;
17173;SDS011;8702;48.130;-1.696;2022-12-10T01:18:38;20.75;;;17.48;;
17173;SDS011;8702;48.130;-1.696;2022-12-10T01:21:08;22.03;;;18.17;;
17173;SDS011;8702;48.130;-1.696;2022-12-10T01:23:37;21.17;;;17.63;;
17173;SDS011;8702;48.130;-1.696;2022-12-10T01:26:05;22.15;;;18.15;;
17173;SDS011;8702;48.130;-1.696;2022-12-10T01:28:35;22.70;;;17.98;;
17173;SDS011;8702;48.130;-1.696;2022-12-10T01:31:03;20.10;;;17.57;;
17173;SDS011;8702;48.130;-1.696;2022-12-10T01:33:30;20.52;;;17.05;;
17173;SDS011;8702;48.130;-1.696;2022-12-10T01:36:02;23.17;;;18.33;;
17173;SDS011;8702;48.130;-1.696;2022-12-10T01:38:29;22.98;;;18.00;;
17173;SDS011;8702;48.130;-1.696;2022-12-10T01:40:57;24.48;;;19.05;;
17173;SDS011;8702;48.130;-1.696;2022-12-10T01:43:24;21.98;;;19.27;;
17173;SDS011;8702;48.130;-1.696;2022-12-10T01:45:51;21.50;;;18.23;;
17173;SDS011;8702;48.130;-1.696;2022-12-10T01:48:19;20.38;;;18.08;;
17173;SDS011;8702;48.130;-1.696;2022-12-10T01:50:46;21.90;;;17.67;;
17173;SDS011;8702;48.130;-1.696;2022-12-10T01:53:15;20.73;;;17.23;;
17173;SDS011;8702;48.130;-1.696;2022-12-10T01:55:44;21.60;;;18.10;;
17173;SDS011;8702;48.130;-1.696;2022-12-10T01:58:12;24.33;;;20.67;;
17173;SDS011;8702;48.130;-1.696;2022-12-10T02:00:42;27.02;;;20.77;;
17173;SDS011;8702;48.130;-1.696;2022-12-10T02:03:13;24.10;;;19.23;;
17173;SDS011;8702;48.130;-1.696;2022-12-10T02:05:41;23.38;;;18.17;;
17173;SDS011;8702;48.130;-1.696;2022-12-10T02:08:10;22.70;;;18.38;;
17173;SDS011;8702;48.130;-1.696;2022-12-10T02:10:45;23.17;;;18.40;;
17173;SDS011;8702;48.130;-1.696;2022-12-10T02:13:18;20.58;;;17.83;;
17173;SDS011;8702;48.130;-1.696;2022-12-10T02:15:47;25.03;;;19.73;;
17173;SDS011;8702;48.130;-1.696;2022-12-10T02:18:18;22.83;;;18.30;;
17173;SDS011;8702;48.130;-1.696;2022-12-10T02:20:47;21.03;;;17.73;;
17173;SDS011;8702;48.130;-1.696;2022-12-10T02:23:16;22.95;;;18.25;;
17173;SDS011;8702;48.130;-1.696;2022-12-10T02:25:48;21.33;;;18.03;;
17173;SDS011;8702;48.130;-1.696;2022-12-10T02:28:17;20.52;;;17.30;;
17173;SDS011;8702;48.130;-1.696;2022-12-10T02:30:47;21.55;;;18.92;;
17173;SDS011;8702;48.130;-1.696;2022-12-10T02:33:16;22.38;;;17.98;;
17173;SDS011;8702;48.130;-1.696;2022-12-10T02:35:44;21.40;;;18.05;;
17173;SDS011;8702;48.130;-1.696;2022-12-10T02:38:14;21.75;;;17.27;;
17173;SDS011;8702;48.130;-1.696;2022-12-10T02:40:44;24.85;;;18.10;;
17173;SDS011;8702;48.130;-1.696;2022-12-10T02:43:12;20.67;;;18.25;;
17173;SDS011;8702;48.130;-1.696;2022-12-10T02:45:39;21.40;;;18.63;;
17173;SDS011;8702;48.130;-1.696;2022-12-10T02:48:09;24.67;;;19.25;;
17173;SDS011;8702;48.130;-1.696;2022-12-10T02:50:38;23.50;;;18.85;;
17173;SDS011;8702;48.130;-1.696;2022-12-10T02:53:05;21.90;;;19.25;;
17173;SDS011;8702;48.130;-1.696;2022-12-10T02:55:37;23.33;;;19.35;;
17173;SDS011;8702;48.130;-1.696;2022-12-10T02:58:09;23.20;;;19.15;;
17173;SDS011;8702;48.130;-1.696;2022-12-10T03:00:41;23.38;;;19.55;;
17173;SDS011;8702;48.130;-1.696;2022-12-10T03:03:17;30.10;;;23.95;;
17173;SDS011;8702;48.130;-1.696;2022-12-10T03:05:47;26.08;;;21.83;;
17173;SDS011;8702;48.130;-1.696;2022-12-10T03:08:17;23.35;;;20.33;;
17173;SDS011;8702;48.130;-1.696;2022-12-10T03:10:48;25.58;;;21.38;;
17173;SDS011;8702;48.130;-1.696;2022-12-10T03:13:17;27.45;;;22.20;;
17173;SDS011;8702;48.130;-1.696;2022-12-10T03:15:46;27.25;;;22.45;;
17173;SDS011;8702;48.130;-1.696;2022-12-10T03:18:14;26.55;;;20.63;;
17173;SDS011;8702;48.130;-1.696;2022-12-10T03:20:45;24.92;;;20.13;;
17173;SDS011;8702;48.130;-1.696;2022-12-10T03:23:15;24.27;;;19.70;;
17173;SDS011;8702;48.130;-1.696;2022-12-10T03:25:42;23.30;;;19.65;;
17173;SDS011;8702;48.130;-1.696;2022-12-10T03:28:10;24.88;;;19.40;;
17173;SDS011;8702;48.130;-1.696;2022-12-10T03:30:37;25.92;;;19.80;;
17173;SDS011;8702;48.130;-1.696;2022-12-10T03:33:06;23.30;;;19.73;;
17173;SDS011;8702;48.130;-1.696;2022-12-10T03:35:33;23.90;;;20.88;;
17173;SDS011;8702;48.130;-1.696;2022-12-10T03:38:02;26.30;;;21.15;;
17173;SDS011;8702;48.130;-1.696;2022-12-10T03:40:31;23.70;;;19.73;;
17173;SDS011;8702;48.130;-1.696;2022-12-10T03:42:58;24.10;;;19.30;;
17173;SDS011;8702;48.130;-1.696;2022-12-10T03:45:25;23.52;;;19.52;;
17173;SDS011;8702;48.130;-1.696;2022-12-10T03:47:53;21.20;;;18.90;;
17173;SDS011;8702;48.130;-1.696;2022-12-10T03:50:20;23.02;;;19.02;;
17173;SDS011;8702;48.130;-1.696;2022-12-10T03:52:47;21.77;;;18.97;;
17173;SDS011;8702;48.130;-1.696;2022-12-10T03:55:16;22.15;;;18.65;;
17173;SDS011;8702;48.130;-1.696;2022-12-10T03:57:43;22.58;;;19.25;;
17173;SDS011;8702;48.130;-1.696;2022-12-10T04:00:11;24.10;;;19.48;;
17173;SDS011;8702;48.130;-1.696;2022-12-10T04:02:38;22.88;;;19.45;;
17173;SDS011;8702;48.130;-1.696;2022-12-10T04:05:06;23.08;;;19.30;;
17173;SDS011;8702;48.130;-1.696;2022-12-10T04:07:33;22.83;;;19.80;;
17173;SDS011;8702;48.130;-1.696;2022-12-10T04:10:00;23.33;;;18.20;;
17173;SDS011;8702;48.130;-1.696;2022-12-10T04:12:29;24.27;;;18.40;;
17173;SDS011;8702;48.130;-1.696;2022-12-10T04:14:56;21.92;;;18.00;;
17173;SDS011;8702;48.130;-1.696;2022-12-10T04:17:41;24.45;;;19.42;;
17173;SDS011;8702;48.130;-1.696;2022-12-10T04:20:09;22.57;;;18.90;;
17173;SDS011;8702;48.130;-1.696;2022-12-10T04:22:56;22.38;;;18.90;;
17173;SDS011;8702;48.130;-1.696;2022-12-10T04:25:41;20.63;;;18.02;;
17173;SDS011;8702;48.130;-1.696;2022-12-10T04:28:27;21.27;;;17.38;;
17173;SDS011;8702;48.130;-1.696;2022-12-10T04:30:55;21.23;;;17.92;;
17173;SDS011;8702;48.130;-1.696;2022-12-10T04:33:22;21.58;;;18.10;;
17173;SDS011;8702;48.130;-1.696;2022-12-10T04:35:49;23.05;;;18.98;;
17173;SDS011;8702;48.130;-1.696;2022-12-10T04:38:16;20.08;;;17.50;;
17173;SDS011;8702;48.130;-1.696;2022-12-10T04:40:44;23.23;;;18.15;;
17173;SDS011;8702;48.130;-1.696;2022-12-10T04:43:11;21.20;;;17.17;;
17173;SDS011;8702;48.130;-1.696;2022-12-10T04:45:39;20.98;;;16.80;;
17173;SDS011;8702;48.130;-1.696;2022-12-10T04:48:07;20.25;;;17.15;;
17173;SDS011;8702;48.130;-1.696;2022-12-10T04:50:34;18.92;;;16.77;;
17173;SDS011;8702;48.130;-1.696;2022-12-10T04:53:01;21.07;;;16.63;;
17173;SDS011;8702;48.130;-1.696;2022-12-10T04:55:28;19.55;;;16.15;;
17173;SDS011;8702;48.130;-1.696;2022-12-10T04:57:55;18.95;;;16.30;;
17173;SDS011;8702;48.130;-1.696;2022-12-10T05:00:23;21.00;;;16.63;;
17173;SDS011;8702;48.130;-1.696;2022-12-10T05:02:52;20.70;;;16.43;;
17173;SDS011;8702;48.130;-1.696;2022-12-10T05:05:19;21.27;;;16.27;;
17173;SDS011;8702;48.130;-1.696;2022-12-10T05:07:46;17.95;;;15.80;;
17173;SDS011;8702;48.130;-1.696;2022-12-10T05:10:14;19.43;;;15.77;;
17173;SDS011;8702;48.130;-1.696;2022-12-10T05:12:41;18.38;;;15.50;;
17173;SDS011;8702;48.130;-1.696;2022-12-10T05:15:09;19.13;;;15.88;;
17173;SDS011;8702;48.130;-1.696;2022-12-10T05:17:36;20.05;;;16.02;;
17173;SDS011;8702;48.130;-1.696;2022-12-10T05:20:05;17.52;;;14.90;;
17173;SDS011;8702;48.130;-1.696;2022-12-10T05:22:33;18.90;;;15.67;;
17173;SDS011;8702;48.130;-1.696;2022-12-10T05:25:26;18.70;;;15.30;;
17173;SDS011;8702;48.130;-1.696;2022-12-10T05:27:53;18.30;;;15.07;;
17173;SDS011;8702;48.130;-1.696;2022-12-10T05:30:20;19.02;;;16.60;;
17173;SDS011;8702;48.130;-1.696;2022-12-10T05:32:48;19.53;;;16.27;;
17173;SDS011;8702;48.130;-1.696;2022-12-10T05:35:16;19.05;;;16.50;;
17173;SDS011;8702;48.130;-1.696;2022-12-10T05:37:43;19.38;;;16.38;;
17173;SDS011;8702;48.130;-1.696;2022-12-10T05:40:11;20.38;;;16.98;;
17173;SDS011;8702;48.130;-1.696;2022-12-10T05:42:38;20.67;;;17.70;;
17173;SDS011;8702;48.130;-1.696;2022-12-10T05:45:06;21.67;;;17.25;;
17173;SDS011;8702;48.130;-1.696;2022-12-10T05:47:33;23.17;;;18.33;;
17173;SDS011;8702;48.130;-1.696;2022-12-10T05:50:00;25.27;;;19.58;;
17173;SDS011;8702;48.130;-1.696;2022-12-10T05:52:29;24.88;;;19.55;;
17173;SDS011;8702;48.130;-1.696;2022-12-10T05:54:56;20.98;;;17.55;;
17173;SDS011;8702;48.130;-1.696;2022-12-10T05:57:24;22.48;;;17.42;;
17173;SDS011;8702;48.130;-1.696;2022-12-10T05:59:51;20.85;;;18.00;;
17173;SDS011;8702;48.130;-1.696;2022-12-10T06:02:18;21.90;;;18.20;;
17173;SDS011;8702;48.130;-1.696;2022-12-10T06:04:46;23.10;;;18.02;;
17173;SDS011;8702;48.130;-1.696;2022-12-10T06:07:13;22.40;;;18.52;;
17173;SDS011;8702;48.130;-1.696;2022-12-10T06:09:41;23.58;;;19.35;;
17173;SDS011;8702;48.130;-1.696;2022-12-10T06:12:09;24.67;;;18.20;;
17173;SDS011;8702;48.130;-1.696;2022-12-10T06:14:36;24.95;;;18.80;;
17173;SDS011;8702;48.130;-1.696;2022-12-10T06:17:03;21.42;;;17.15;;
17173;SDS011;8702;48.130;-1.696;2022-12-10T06:19:30;20.75;;;17.58;;
17173;SDS011;8702;48.130;-1.696;2022-12-10T06:21:58;20.75;;;17.50;;
17173;SDS011;8702;48.130;-1.696;2022-12-10T06:24:25;22.73;;;18.13;;
17173;SDS011;8702;48.130;-1.696;2022-12-10T06:26:53;21.53;;;17.40;;
17173;SDS011;8702;48.130;-1.696;2022-12-10T06:29:21;20.20;;;17.00;;
17173;SDS011;8702;48.130;-1.696;2022-12-10T06:31:48;20.50;;;17.02;;
17173;SDS011;8702;48.130;-1.696;2022-12-10T06:34:15;19.83;;;16.65;;
17173;SDS011;8702;48.130;-1.696;2022-12-10T06:36:42;20.25;;;17.40;;
17173;SDS011;8702;48.130;-1.696;2022-12-10T06:39:10;21.23;;;17.80;;
17173;SDS011;8702;48.130;-1.696;2022-12-10T06:41:37;21.95;;;18.25;;
17173;SDS011;8702;48.130;-1.696;2022-12-10T06:44:10;21.00;;;18.15;;
17173;SDS011;8702;48.130;-1.696;2022-12-10T06:46:38;21.20;;;17.90;;
17173;SDS011;8702;48.130;-1.696;2022-12-10T06:49:06;22.33;;;18.88;;
17173;SDS011;8702;48.130;-1.696;2022-12-10T06:51:33;27.17;;;21.00;;
17173;SDS011;8702;48.130;-1.696;2022-12-10T06:54:03;25.50;;;20.52;;
17173;SDS011;8702;48.130;-1.696;2022-12-10T06:56:31;24.45;;;20.48;;
17173;SDS011;8702;48.130;-1.696;2022-12-10T06:58:58;25.90;;;21.02;;
17173;SDS011;8702;48.130;-1.696;2022-12-10T07:01:27;25.93;;;21.20;;
17173;SDS011;8702;48.130;-1.696;2022-12-10T07:03:54;24.67;;;21.17;;
17173;SDS011;8702;48.130;-1.696;2022-12-10T07:06:22;25.25;;;21.23;;
17173;SDS011;8702;48.130;-1.696;2022-12-10T07:08:50;24.98;;;20.92;;
17173;SDS011;8702;48.130;-1.696;2022-12-10T07:11:18;25.65;;;21.00;;
17173;SDS011;8702;48.130;-1.696;2022-12-10T07:13:46;24.10;;;20.33;;
17173;SDS011;8702;48.130;-1.696;2022-12-10T07:16:13;23.13;;;20.23;;
17173;SDS011;8702;48.130;-1.696;2022-12-10T07:18:43;26.00;;;21.77;;
17173;SDS011;8702;48.130;-1.696;2022-12-10T07:21:14;24.42;;;19.42;;
17173;SDS011;8702;48.130;-1.696;2022-12-10T07:23:41;22.00;;;18.73;;
17173;SDS011;8702;48.130;-1.696;2022-12-10T07:26:08;23.98;;;19.10;;
17173;SDS011;8702;48.130;-1.696;2022-12-10T07:28:35;22.08;;;18.63;;
17173;SDS011;8702;48.130;-1.696;2022-12-10T07:31:03;23.15;;;18.70;;
17173;SDS011;8702;48.130;-1.696;2022-12-10T07:33:30;20.60;;;18.20;;
17173;SDS011;8702;48.130;-1.696;2022-12-10T07:35:59;25.85;;;20.27;;
17173;SDS011;8702;48.130;-1.696;2022-12-10T07:38:26;24.17;;;19.90;;
17173;SDS011;8702;48.130;-1.696;2022-12-10T07:40:53;23.25;;;18.70;;
17173;SDS011;8702;48.130;-1.696;2022-12-10T07:43:21;23.10;;;18.80;;
17173;SDS011;8702;48.130;-1.696;2022-12-10T07:45:48;24.85;;;19.23;;
17173;SDS011;8702;48.130;-1.696;2022-12-10T07:48:16;22.45;;;18.90;;
17173;SDS011;8702;48.130;-1.696;2022-12-10T07:50:43;23.73;;;20.17;;
17173;SDS011;8702;48.130;-1.696;2022-12-10T07:53:11;23.80;;;21.00;;
17173;SDS011;8702;48.130;-1.696;2022-12-10T07:55:39;23.90;;;19.77;;
17173;SDS011;8702;48.130;-1.696;2022-12-10T07:58:06;24.58;;;19.60;;
17173;SDS011;8702;48.130;-1.696;2022-12-10T08:00:33;22.13;;;18.70;;
17173;SDS011;8702;48.130;-1.696;2022-12-10T08:03:00;23.80;;;19.83;;
17173;SDS011;8702;48.130;-1.696;2022-12-10T08:05:28;24.17;;;20.33;;
17173;SDS011;8702;48.130;-1.696;2022-12-10T08:07:55;24.35;;;20.63;;
17173;SDS011;8702;48.130;-1.696;2022-12-10T08:10:23;21.67;;;19.17;;
17173;SDS011;8702;48.130;-1.696;2022-12-10T08:12:51;21.33;;;18.60;;
17173;SDS011;8702;48.130;-1.696;2022-12-10T08:15:18;23.05;;;18.35;;
17173;SDS011;8702;48.130;-1.696;2022-12-10T08:17:45;20.48;;;17.25;;
17173;SDS011;8702;48.130;-1.696;2022-12-10T08:20:12;22.58;;;17.60;;
17173;SDS011;8702;48.130;-1.696;2022-12-10T08:22:39;22.67;;;17.98;;
17173;SDS011;8702;48.130;-1.696;2022-12-10T08:25:07;21.67;;;16.30;;
17173;SDS011;8702;48.130;-1.696;2022-12-10T08:27:36;19.25;;;15.75;;
17173;SDS011;8702;48.130;-1.696;2022-12-10T08:30:03;17.70;;;15.40;;
17173;SDS011;8702;48.130;-1.696;2022-12-10T08:32:31;18.77;;;16.25;;
17173;SDS011;8702;48.130;-1.696;2022-12-10T08:34:58;20.75;;;16.40;;
17173;SDS011;8702;48.130;-1.696;2022-12-10T08:37:25;18.50;;;15.60;;
17173;SDS011;8702;48.130;-1.696;2022-12-10T08:39:52;17.65;;;14.75;;
17173;SDS011;8702;48.130;-1.696;2022-12-10T08:42:20;17.85;;;14.80;;
17173;SDS011;8702;48.130;-1.696;2022-12-10T08:44:48;17.80;;;14.75;;
17173;SDS011;8702;48.130;-1.696;2022-12-10T08:47:16;15.10;;;13.50;;
17173;SDS011;8702;48.130;-1.696;2022-12-10T08:49:43;18.45;;;15.70;;
17173;SDS011;8702;48.130;-1.696;2022-12-10T08:52:10;16.75;;;14.68;;
17173;SDS011;8702;48.130;-1.696;2022-12-10T08:54:38;15.97;;;14.27;;
17173;SDS011;8702;48.130;-1.696;2022-12-10T08:57:05;18.50;;;14.40;;
17173;SDS011;8702;48.130;-1.696;2022-12-10T08:59:32;16.20;;;14.48;;
17173;SDS011;8702;48.130;-1.696;2022-12-10T09:02:03;16.77;;;14.15;;
17173;SDS011;8702;48.130;-1.696;2022-12-10T09:04:30;18.80;;;15.10;;
17173;SDS011;8702;48.130;-1.696;2022-12-10T09:06:57;17.85;;;15.63;;
17173;SDS011;8702;48.130;-1.696;2022-12-10T09:09:24;19.45;;;17.00;;
17173;SDS011;8702;48.130;-1.696;2022-12-10T09:11:52;22.48;;;19.95;;
17173;SDS011;8702;48.130;-1.696;2022-12-10T09:14:19;23.10;;;20.58;;
17173;SDS011;8702;48.130;-1.696;2022-12-10T09:16:46;24.00;;;20.77;;
17173;SDS011;8702;48.130;-1.696;2022-12-10T09:19:15;24.33;;;21.00;;
17173;SDS011;8702;48.130;-1.696;2022-12-10T09:21:42;24.07;;;20.30;;
17173;SDS011;8702;48.130;-1.696;2022-12-10T09:24:09;23.33;;;20.00;;
17173;SDS011;8702;48.130;-1.696;2022-12-10T09:26:37;22.10;;;19.42;;
17173;SDS011;8702;48.130;-1.696;2022-12-10T09:29:04;22.20;;;18.48;;
17173;SDS011;8702;48.130;-1.696;2022-12-10T09:31:31;22.02;;;18.45;;
17173;SDS011;8702;48.130;-1.696;2022-12-10T09:33:58;20.88;;;18.20;;
17173;SDS011;8702;48.130;-1.696;2022-12-10T09:36:27;21.42;;;18.80;;
17173;SDS011;8702;48.130;-1.696;2022-12-10T09:38:54;22.30;;;18.40;;
17173;SDS011;8702;48.130;-1.696;2022-12-10T09:41:35;23.30;;;18.98;;
17173;SDS011;8702;48.130;-1.696;2022-12-10T09:44:10;24.27;;;19.40;;
17173;SDS011;8702;48.130;-1.696;2022-12-10T09:46:41;24.30;;;19.47;;
17173;SDS011;8702;48.130;-1.696;2022-12-10T09:49:13;24.20;;;20.23;;
17173;SDS011;8702;48.130;-1.696;2022-12-10T09:51:46;22.15;;;18.85;;
17173;SDS011;8702;48.130;-1.696;2022-12-10T09:54:16;26.45;;;18.30;;
17173;SDS011;8702;48.130;-1.696;2022-12-10T09:56:45;22.52;;;18.25;;
17173;SDS011;8702;48.130;-1.696;2022-12-10T09:59:15;26.40;;;19.42;;
17173;SDS011;8702;48.130;-1.696;2022-12-10T10:01:44;21.70;;;18.13;;
17173;SDS011;8702;48.130;-1.696;2022-12-10T10:04:12;22.95;;;17.48;;
17173;SDS011;8702;48.130;-1.696;2022-12-10T10:06:39;23.88;;;19.17;;
17173;SDS011;8702;48.130;-1.696;2022-12-10T10:09:09;23.23;;;17.45;;
17173;SDS011;8702;48.130;-1.696;2022-12-10T10:11:37;20.13;;;16.70;;
17173;SDS011;8702;48.130;-1.696;2022-12-10T10:14:05;20.48;;;17.55;;
17173;SDS011;8702;48.130;-1.696;2022-12-10T10:16:37;19.73;;;16.42;;
17173;SDS011;8702;48.130;-1.696;2022-12-10T10:19:11;21.88;;;17.25;;
17173;SDS011;8702;48.130;-1.696;2022-12-10T10:21:40;20.65;;;16.88;;
17173;SDS011;8702;48.130;-1.696;2022-12-10T10:24:12;21.92;;;17.40;;
17173;SDS011;8702;48.130;-1.696;2022-12-10T10:26:40;19.55;;;16.33;;
17173;SDS011;8702;48.130;-1.696;2022-12-10T10:29:08;23.05;;;17.67;;
17173;SDS011;8702;48.130;-1.696;2022-12-10T10:31:38;18.83;;;15.27;;
17173;SDS011;8702;48.130;-1.696;2022-12-10T10:34:06;17.98;;;15.63;;
17173;SDS011;8702;48.130;-1.696;2022-12-10T10:36:34;18.40;;;14.15;;
17173;SDS011;8702;48.130;-1.696;2022-12-10T10:39:07;16.85;;;13.10;;
17173;SDS011;8702;48.130;-1.696;2022-12-10T10:41:38;14.05;;;12.55;;
17173;SDS011;8702;48.130;-1.696;2022-12-10T10:44:13;18.50;;;13.25;;
17173;SDS011;8702;48.130;-1.696;2022-12-10T10:46:42;15.85;;;12.65;;
17173;SDS011;8702;48.130;-1.696;2022-12-10T10:49:14;16.35;;;13.93;;
17173;SDS011;8702;48.130;-1.696;2022-12-10T10:51:42;16.98;;;13.57;;
17173;SDS011;8702;48.130;-1.696;2022-12-10T10:54:10;18.90;;;14.02;;
17173;SDS011;8702;48.130;-1.696;2022-12-10T10:56:40;17.42;;;13.55;;
17173;SDS011;8702;48.130;-1.696;2022-12-10T10:59:19;18.00;;;13.23;;
17173;SDS011;8702;48.130;-1.696;2022-12-10T11:01:48;14.23;;;12.73;;
17173;SDS011;8702;48.130;-1.696;2022-12-10T11:04:16;16.45;;;12.38;;
17173;SDS011;8702;48.130;-1.696;2022-12-10T11:06:45;16.23;;;11.63;;
17173;SDS011;8702;48.130;-1.696;2022-12-10T11:09:13;15.82;;;11.55;;
17173;SDS011;8702;48.130;-1.696;2022-12-10T11:11:44;13.88;;;11.45;;
17173;SDS011;8702;48.130;-1.696;2022-12-10T11:14:22;16.63;;;12.57;;
17173;SDS011;8702;48.130;-1.696;2022-12-10T11:16:50;14.13;;;12.00;;
17173;SDS011;8702;48.130;-1.696;2022-12-10T11:19:19;16.10;;;12.57;;
17173;SDS011;8702;48.130;-1.696;2022-12-10T11:21:46;14.65;;;12.02;;
17173;SDS011;8702;48.130;-1.696;2022-12-10T11:24:15;19.00;;;12.48;;
17173;SDS011;8702;48.130;-1.696;2022-12-10T11:26:49;16.13;;;13.02;;
17173;SDS011;8702;48.130;-1.696;2022-12-10T11:29:29;16.63;;;13.75;;
17173;SDS011;8702;48.130;-1.696;2022-12-10T11:32:04;16.08;;;12.77;;
17173;SDS011;8702;48.130;-1.696;2022-12-10T11:34:36;15.00;;;13.33;;
17173;SDS011;8702;48.130;-1.696;2022-12-10T11:37:08;14.65;;;13.05;;
17173;SDS011;8702;48.130;-1.696;2022-12-10T11:39:44;15.70;;;12.45;;
17173;SDS011;8702;48.130;-1.696;2022-12-10T11:42:17;13.38;;;11.07;;
17173;SDS011;8702;48.130;-1.696;2022-12-10T11:44:49;14.00;;;11.55;;
17173;SDS011;8702;48.130;-1.696;2022-12-10T11:47:34;13.90;;;10.75;;
17173;SDS011;8702;48.130;-1.696;2022-12-10T11:50:13;11.45;;;10.23;;
17173;SDS011;8702;48.130;-1.696;2022-12-10T11:52:45;14.35;;;10.85;;
17173;SDS011;8702;48.130;-1.696;2022-12-10T11:55:21;12.35;;;10.35;;
17173;SDS011;8702;48.130;-1.696;2022-12-10T11:57:55;12.25;;;9.65;;
17173;SDS011;8702;48.130;-1.696;2022-12-10T12:00:27;12.02;;;10.00;;
17173;SDS011;8702;48.130;-1.696;2022-12-10T12:03:02;11.45;;;10.05;;
17173;SDS011;8702;48.130;-1.696;2022-12-10T12:05:40;12.35;;;10.50;;
17173;SDS011;8702;48.130;-1.696;2022-12-10T12:08:11;13.73;;;11.32;;
17173;SDS011;8702;48.130;-1.696;2022-12-10T12:10:48;13.57;;;11.60;;
17173;SDS011;8702;48.130;-1.696;2022-12-10T12:13:20;14.75;;;11.77;;
17173;SDS011;8702;48.130;-1.696;2022-12-10T12:15:51;14.18;;;11.80;;
17173;SDS011;8702;48.130;-1.696;2022-12-10T12:18:20;12.32;;;11.02;;
17173;SDS011;8702;48.130;-1.696;2022-12-10T12:20:49;13.63;;;11.30;;
17173;SDS011;8702;48.130;-1.696;2022-12-10T12:23:19;13.70;;;10.57;;
17173;SDS011;8702;48.130;-1.696;2022-12-10T12:25:49;14.97;;;12.37;;
17173;SDS011;8702;48.130;-1.696;2022-12-10T12:28:21;13.98;;;11.88;;
17173;SDS011;8702;48.130;-1.696;2022-12-10T12:30:50;14.93;;;11.95;;
17173;SDS011;8702;48.130;-1.696;2022-12-10T12:33:20;16.60;;;12.13;;
17173;SDS011;8702;48.130;-1.696;2022-12-10T12:35:55;15.43;;;12.10;;
17173;SDS011;8702;48.130;-1.696;2022-12-10T12:38:27;16.25;;;12.30;;
17173;SDS011;8702;48.130;-1.696;2022-12-10T12:40:56;15.90;;;12.38;;
17173;SDS011;8702;48.130;-1.696;2022-12-10T12:43:28;14.70;;;11.85;;
17173;SDS011;8702;48.130;-1.696;2022-12-10T12:45:58;14.20;;;12.10;;
17173;SDS011;8702;48.130;-1.696;2022-12-10T12:48:26;13.90;;;11.18;;
17173;SDS011;8702;48.130;-1.696;2022-12-10T12:50:57;12.57;;;10.90;;
17173;SDS011;8702;48.130;-1.696;2022-12-10T12:53:26;13.30;;;11.25;;
17173;SDS011;8702;48.130;-1.696;2022-12-10T12:55:56;12.55;;;10.40;;
17173;SDS011;8702;48.130;-1.696;2022-12-10T12:58:30;13.85;;;10.25;;
17173;SDS011;8702;48.130;-1.696;2022-12-10T13:01:03;12.07;;;10.45;;
17173;SDS011;8702;48.130;-1.696;2022-12-10T13:03:35;13.05;;;10.55;;
17173;SDS011;8702;48.130;-1.696;2022-12-10T13:06:16;13.98;;;10.52;;
17173;SDS011;8702;48.130;-1.696;2022-12-10T13:08:45;9.20;;;8.13;;
17173;SDS011;8702;48.130;-1.696;2022-12-10T13:14:11;10.07;;;8.40;;
17173;SDS011;8702;48.130;-1.696;2022-12-10T13:16:48;10.48;;;8.88;;
17173;SDS011;8702;48.130;-1.696;2022-12-10T13:19:22;11.68;;;8.80;;
17173;SDS011;8702;48.130;-1.696;2022-12-10T13:21:58;8.90;;;8.00;;
17173;SDS011;8702;48.130;-1.696;2022-12-10T13:27:14;8.77;;;7.55;;
17173;SDS011;8702;48.130;-1.696;2022-12-10T13:29:51;10.23;;;7.75;;
17173;SDS011;8702;48.130;-1.696;2022-12-10T13:32:21;9.73;;;7.23;;
17173;SDS011;8702;48.130;-1.696;2022-12-10T13:35:15;6.38;;;5.72;;
17173;SDS011;8702;48.130;-1.696;2022-12-10T13:37:53;8.60;;;6.50;;
17173;SDS011;8702;48.130;-1.696;2022-12-10T13:40:25;8.43;;;7.30;;
17173;SDS011;8702;48.130;-1.696;2022-12-10T13:42:56;6.50;;;5.45;;
17173;SDS011;8702;48.130;-1.696;2022-12-10T13:45:43;7.50;;;6.00;;
17173;SDS011;8702;48.130;-1.696;2022-12-10T13:48:19;8.95;;;6.68;;
17173;SDS011;8702;48.130;-1.696;2022-12-10T13:50:51;8.32;;;6.22;;
17173;SDS011;8702;48.130;-1.696;2022-12-10T13:53:22;7.93;;;6.00;;
17173;SDS011;8702;48.130;-1.696;2022-12-10T13:55:53;7.93;;;5.55;;
17173;SDS011;8702;48.130;-1.696;2022-12-10T13:58:26;5.67;;;4.57;;
17173;SDS011;8702;48.130;-1.696;2022-12-10T14:01:00;4.75;;;4.13;;
17173;SDS011;8702;48.130;-1.696;2022-12-10T14:03:54;5.38;;;4.40;;
17173;SDS011;8702;48.130;-1.696;2022-12-10T14:06:25;7.10;;;4.50;;
17173;SDS011;8702;48.130;-1.696;2022-12-10T14:08:57;5.53;;;4.25;;
17173;SDS011;8702;48.130;-1.696;2022-12-10T14:11:26;6.10;;;4.60;;
17173;SDS011;8702;48.130;-1.696;2022-12-10T14:13:55;6.50;;;4.70;;
17173;SDS011;8702;48.130;-1.696;2022-12-10T14:16:26;7.65;;;5.10;;
17173;SDS011;8702;48.130;-1.696;2022-12-10T14:18:55;8.25;;;5.93;;
17173;SDS011;8702;48.130;-1.696;2022-12-10T14:21:23;7.32;;;5.40;;
17173;SDS011;8702;48.130;-1.696;2022-12-10T14:23:53;8.18;;;5.97;;
17173;SDS011;8702;48.130;-1.696;2022-12-10T14:26:21;8.50;;;6.00;;
17173;SDS011;8702;48.130;-1.696;2022-12-10T14:28:50;7.43;;;5.87;;
17173;SDS011;8702;48.130;-1.696;2022-12-10T14:31:18;8.32;;;6.28;;
17173;SDS011;8702;48.130;-1.696;2022-12-10T14:33:48;8.30;;;6.50;;
17173;SDS011;8702;48.130;-1.696;2022-12-10T14:36:17;10.73;;;7.38;;
17173;SDS011;8702;48.130;-1.696;2022-12-10T14:38:46;9.50;;;6.65;;
17173;SDS011;8702;48.130;-1.696;2022-12-10T14:41:15;11.68;;;6.53;;
17173;SDS011;8702;48.130;-1.696;2022-12-10T14:43:44;8.23;;;5.60;;